createdAt,value
2024-04-21T00:01:34.098Z,13.20
2024-04-21T00:04:01.626Z,9.73
2024-04-21T00:06:28.599Z,7.97
2024-04-21T00:08:55.815Z,11.80
2024-04-21T00:11:22.757Z,11.80
2024-04-21T00:13:50.120Z,11.70
2024-04-21T00:16:17.395Z,13.07
2024-04-21T00:18:44.742Z,9.27
2024-04-21T00:21:13.037Z,9.57
2024-04-21T00:23:40.287Z,9.60
2024-04-21T00:26:07.262Z,12.57
2024-04-21T00:28:34.106Z,10.90
2024-04-21T00:31:01.410Z,14.93
2024-04-21T00:33:28.368Z,16.00
2024-04-21T00:35:55.209Z,9.40
2024-04-21T00:38:22.745Z,9.70
2024-04-21T00:40:49.584Z,14.63
2024-04-21T00:43:17.080Z,13.03
2024-04-21T00:45:48.069Z,9.13
2024-04-21T00:48:15.681Z,9.63
2024-04-21T00:50:50.619Z,15.40
2024-04-21T00:53:20.391Z,16.93
2024-04-21T00:55:48.373Z,11.93
2024-04-21T00:58:19.567Z,13.77
2024-04-21T01:00:47.758Z,12.23
2024-04-21T01:03:15.079Z,13.33
2024-04-21T01:05:42.170Z,11.27
2024-04-21T01:08:09.917Z,15.37
2024-04-21T01:10:37.226Z,13.30
2024-04-21T01:13:11.473Z,10.50
2024-04-21T01:15:38.742Z,12.90
2024-04-21T01:18:07.449Z,10.60
2024-04-21T01:20:37.895Z,11.07
2024-04-21T01:23:05.459Z,9.90
2024-04-21T01:25:33.006Z,9.37
2024-04-21T01:28:00.070Z,15.63
2024-04-21T01:30:27.138Z,12.97
2024-04-21T01:32:54.124Z,11.13
2024-04-21T01:35:21.084Z,9.07
2024-04-21T01:37:48.290Z,14.00
2024-04-21T01:40:15.286Z,11.57
2024-04-21T01:42:42.652Z,9.10
2024-04-21T01:45:09.465Z,10.47
2024-04-21T01:47:36.725Z,11.90
2024-04-21T01:50:03.794Z,12.53
2024-04-21T01:52:31.035Z,13.40
2024-04-21T01:54:58.371Z,12.73
2024-04-21T01:57:25.204Z,10.37
2024-04-21T01:59:52.485Z,10.60
2024-04-21T02:02:19.744Z,11.60
2024-04-21T02:04:47.071Z,11.53
2024-04-21T02:07:14.092Z,8.77
2024-04-21T02:09:41.364Z,13.47
2024-04-21T02:12:08.303Z,8.40
2024-04-21T02:14:35.668Z,9.17
2024-04-21T02:17:02.541Z,10.13
2024-04-21T02:19:29.857Z,8.80
2024-04-21T02:21:56.715Z,13.03
2024-04-21T02:24:26.334Z,8.60
2024-04-21T02:26:53.687Z,6.27
2024-04-21T02:29:21.008Z,5.50
2024-04-21T02:31:48.200Z,5.93
2024-04-21T02:34:15.061Z,3.10
2024-04-21T02:36:42.273Z,3.83
2024-04-21T02:39:09.094Z,3.20
2024-04-21T02:41:36.348Z,2.33
2024-04-21T02:44:03.667Z,4.70
2024-04-21T02:46:30.947Z,3.60
2024-04-21T02:48:57.850Z,4.50
2024-04-21T02:51:24.760Z,6.80
2024-04-21T02:53:51.554Z,4.90
2024-04-21T02:56:18.857Z,3.57
2024-04-21T02:58:46.188Z,3.70
2024-04-21T03:01:13.047Z,7.80
2024-04-21T03:03:40.363Z,3.77
2024-04-21T03:06:07.664Z,5.87
2024-04-21T03:08:34.912Z,3.53
2024-04-21T03:11:02.185Z,5.67
2024-04-21T03:13:29.556Z,4.73
2024-04-21T03:15:56.455Z,4.50
2024-04-21T03:18:23.923Z,5.27
2024-04-21T03:20:57.527Z,6.67
2024-04-21T03:26:08.552Z,4.17
2024-04-21T03:28:35.863Z,4.33
2024-04-21T03:31:03.226Z,3.83
2024-04-21T03:34:01.191Z,3.63
2024-04-21T03:36:29.558Z,3.17
2024-04-21T03:38:56.649Z,6.33
2024-04-21T03:41:23.575Z,6.13
2024-04-21T03:43:50.779Z,3.43
2024-04-21T03:46:19.307Z,2.47
2024-04-21T03:48:47.917Z,3.17
2024-04-21T03:51:15.154Z,3.63
2024-04-21T03:53:42.376Z,7.90
2024-04-21T03:56:09.599Z,6.67
2024-04-21T03:58:36.957Z,3.27
2024-04-21T04:01:04.138Z,4.77
2024-04-21T04:03:31.138Z,6.23
2024-04-21T04:05:58.675Z,5.17
2024-04-21T04:08:25.521Z,3.43
2024-04-21T04:10:52.754Z,3.90
2024-04-21T04:13:19.892Z,6.43
2024-04-21T04:15:47.472Z,5.30
2024-04-21T04:18:14.746Z,2.70
2024-04-21T04:20:41.988Z,2.60
2024-04-21T04:23:08.896Z,3.63
2024-04-21T04:25:35.734Z,4.20
2024-04-21T04:28:02.641Z,4.20
2024-04-21T04:30:29.844Z,5.03
2024-04-21T04:32:56.965Z,6.47
2024-04-21T04:35:24.293Z,4.43
2024-04-21T04:37:53.737Z,4.37
2024-04-21T04:40:22.598Z,4.23
2024-04-21T04:42:49.697Z,8.10
2024-04-21T04:45:17.048Z,5.27
2024-04-21T04:47:44.321Z,8.27
2024-04-21T04:50:14.048Z,6.13
2024-04-21T04:52:41.323Z,4.90
2024-04-21T04:55:08.763Z,5.97
2024-04-21T04:57:36.120Z,6.03
2024-04-21T05:00:03.391Z,6.47
2024-04-21T05:02:30.681Z,3.87
2024-04-21T05:04:57.933Z,6.10
2024-04-21T05:07:25.239Z,3.90
2024-04-21T05:09:52.584Z,3.70
2024-04-21T05:12:19.861Z,3.87
2024-04-21T05:14:47.112Z,5.90
2024-04-21T05:17:14.348Z,3.60
2024-04-21T05:19:41.705Z,4.27
2024-04-21T05:22:09.029Z,5.37
2024-04-21T05:24:36.390Z,6.30
2024-04-21T05:27:04.040Z,8.27
2024-04-21T05:29:31.038Z,7.90
2024-04-21T05:31:57.927Z,4.77
2024-04-21T05:34:25.262Z,6.20
2024-04-21T05:36:52.110Z,6.93
2024-04-21T05:39:19.435Z,6.33
2024-04-21T05:41:46.291Z,5.03
2024-04-21T05:44:13.139Z,8.20
2024-04-21T05:46:40.381Z,6.80
2024-04-21T05:49:07.651Z,7.20
2024-04-21T05:51:34.548Z,6.40
2024-04-21T05:54:01.799Z,7.63
2024-04-21T05:56:29.506Z,14.13
2024-04-21T05:58:56.791Z,11.60
2024-04-21T06:01:23.666Z,6.87
2024-04-21T06:03:51.014Z,5.53
2024-04-21T06:06:22.704Z,9.87
2024-04-21T06:08:50.672Z,7.30
2024-04-21T06:11:18.005Z,7.27
2024-04-21T06:13:45.346Z,9.30
2024-04-21T06:16:12.232Z,11.30
2024-04-21T06:18:39.640Z,7.10
2024-04-21T06:21:06.913Z,9.67
2024-04-21T06:23:33.730Z,8.00
2024-04-21T06:26:00.977Z,8.37
2024-04-21T06:28:27.883Z,10.23
2024-04-21T06:30:55.208Z,9.33
2024-04-21T06:33:22.260Z,11.50
2024-04-21T06:35:50.977Z,11.33
2024-04-21T06:38:18.206Z,9.10
2024-04-21T06:40:45.285Z,10.73
2024-04-21T06:43:12.210Z,9.80
2024-04-21T06:45:46.759Z,9.87
2024-04-21T06:48:14.391Z,12.07
2024-04-21T06:50:48.496Z,11.37
2024-04-21T06:53:15.332Z,11.83
2024-04-21T06:55:42.931Z,6.97
2024-04-21T06:58:09.916Z,8.00
2024-04-21T07:00:36.826Z,9.93
2024-04-21T07:03:07.220Z,8.83
2024-04-21T07:05:36.233Z,12.70
2024-04-21T07:08:03.092Z,15.87
2024-04-21T07:10:30.457Z,9.90
2024-04-21T07:12:57.786Z,10.60
2024-04-21T07:15:25.075Z,11.67
2024-04-21T07:17:52.399Z,11.87
2024-04-21T07:20:22.493Z,9.87
2024-04-21T07:22:49.945Z,13.07
2024-04-21T07:25:23.179Z,12.37
2024-04-21T07:27:52.509Z,9.37
2024-04-21T07:30:19.820Z,8.57
2024-04-21T07:32:47.126Z,9.77
2024-04-21T07:35:14.033Z,11.40
2024-04-21T07:37:41.253Z,7.37
2024-04-21T07:40:08.659Z,9.90
2024-04-21T07:42:35.971Z,10.43
2024-04-21T07:45:02.949Z,8.83
2024-04-21T07:47:30.304Z,9.63
2024-04-21T07:49:57.148Z,7.00
2024-04-21T07:52:24.566Z,7.63
2024-04-21T07:54:52.049Z,8.87
2024-04-21T07:57:19.357Z,9.60
2024-04-21T07:59:46.583Z,5.43
2024-04-21T08:02:13.869Z,8.07
2024-04-21T08:04:41.149Z,9.50
2024-04-21T08:07:08.203Z,4.87
2024-04-21T08:09:36.059Z,7.03
2024-04-21T08:12:03.541Z,4.93
2024-04-21T08:14:31.014Z,4.90
2024-04-21T08:17:01.016Z,6.57
2024-04-21T08:19:28.056Z,5.33
2024-04-21T08:21:55.408Z,5.87
2024-04-21T08:24:22.688Z,3.40
2024-04-21T08:26:50.558Z,4.57
2024-04-21T08:29:17.966Z,3.80
2024-04-21T08:31:45.236Z,4.50
2024-04-21T08:34:12.546Z,5.50
2024-04-21T08:36:39.803Z,6.70
2024-04-21T08:39:07.012Z,7.00
2024-04-21T08:41:40.884Z,4.93
2024-04-21T08:44:14.827Z,5.00
2024-04-21T08:46:42.533Z,4.07
2024-04-21T08:49:09.966Z,4.97
2024-04-21T08:51:38.117Z,4.97
2024-04-21T08:54:05.291Z,4.40
2024-04-21T08:56:33.330Z,3.20
2024-04-21T08:59:00.946Z,4.13
2024-04-21T09:01:28.747Z,4.10
2024-04-21T09:03:56.286Z,4.80
2024-04-21T09:06:27.429Z,3.97
2024-04-21T09:08:55.950Z,5.80
2024-04-21T09:11:26.324Z,5.63
2024-04-21T09:13:54.676Z,5.27
2024-04-21T09:16:22.297Z,3.17
2024-04-21T09:18:49.316Z,3.77
2024-04-21T09:21:16.193Z,3.47
2024-04-21T09:23:43.510Z,4.37
2024-04-21T09:26:10.942Z,5.47
2024-04-21T09:28:37.933Z,5.67
2024-04-21T09:31:05.391Z,5.20
2024-04-21T09:33:32.767Z,3.47
2024-04-21T09:36:00.260Z,3.47
2024-04-21T09:38:27.577Z,3.60
2024-04-21T09:40:58.041Z,4.73
2024-04-21T09:43:27.611Z,4.67
2024-04-21T09:45:55.904Z,4.97
2024-04-21T09:48:23.877Z,3.30
2024-04-21T09:50:51.074Z,3.53
2024-04-21T09:53:19.099Z,4.40
2024-04-21T09:55:48.648Z,4.83
2024-04-21T09:58:21.263Z,3.83
2024-04-21T10:00:53.650Z,4.83
2024-04-21T10:03:21.209Z,3.40
2024-04-21T10:05:51.595Z,5.70
2024-04-21T10:08:22.138Z,2.93
2024-04-21T10:10:51.114Z,4.50
2024-04-21T10:13:18.372Z,3.20
2024-04-21T10:15:46.094Z,4.17
2024-04-21T10:18:21.504Z,5.50
2024-04-21T10:20:48.972Z,3.20
2024-04-21T10:23:16.286Z,4.83
2024-04-21T10:25:47.667Z,3.47
2024-04-21T10:28:25.704Z,3.70
2024-04-21T10:30:53.030Z,2.90
2024-04-21T10:33:29.363Z,2.80
2024-04-21T10:35:56.191Z,3.20
2024-04-21T10:38:23.502Z,3.87
2024-04-21T10:40:50.922Z,2.83
2024-04-21T10:43:26.236Z,3.50
2024-04-21T10:45:57.225Z,3.40
2024-04-21T10:48:24.468Z,4.13
2024-04-21T10:50:51.945Z,3.77
2024-04-21T10:53:19.421Z,4.37
2024-04-21T10:55:47.143Z,3.77
2024-04-21T10:58:14.504Z,3.50
2024-04-21T11:00:41.549Z,3.40
2024-04-21T11:03:09.047Z,3.53
2024-04-21T11:06:01.240Z,3.10
2024-04-21T11:08:31.705Z,3.97
2024-04-21T11:10:59.802Z,2.73
2024-04-21T11:13:27.081Z,3.47
2024-04-21T11:15:54.149Z,3.10
2024-04-21T11:18:21.563Z,3.07
2024-04-21T11:20:48.890Z,3.80
2024-04-21T11:23:20.648Z,3.93
2024-04-21T11:25:48.010Z,3.20
2024-04-21T11:28:17.620Z,3.00
2024-04-21T11:30:44.989Z,3.53
2024-04-21T11:33:12.360Z,2.60
2024-04-21T11:35:40.162Z,2.90
2024-04-21T11:38:07.786Z,2.70
2024-04-21T11:40:41.354Z,3.10
2024-04-21T11:43:12.388Z,6.10
2024-04-21T11:45:43.542Z,2.47
2024-04-21T11:48:11.354Z,3.53
2024-04-21T11:50:39.115Z,2.87
2024-04-21T11:53:06.826Z,2.40
2024-04-21T11:55:34.475Z,2.67
2024-04-21T11:58:01.783Z,3.63
2024-04-21T12:00:28.737Z,2.70
2024-04-21T12:02:56.027Z,2.70
2024-04-21T12:05:22.956Z,2.00
2024-04-21T12:07:50.192Z,1.90
2024-04-21T12:10:17.102Z,1.90
2024-04-21T12:12:44.449Z,2.57
2024-04-21T12:15:11.681Z,1.70
2024-04-21T12:17:39.003Z,2.57
2024-04-21T12:20:06.275Z,2.23
2024-04-21T12:22:33.599Z,1.90
2024-04-21T12:25:00.957Z,1.90
2024-04-21T12:27:27.903Z,1.93
2024-04-21T12:29:55.207Z,2.10
2024-04-21T12:32:22.484Z,3.70
2024-04-21T12:34:49.373Z,1.83
2024-04-21T12:37:16.746Z,1.97
2024-04-21T12:39:43.700Z,2.00
2024-04-21T12:42:10.682Z,2.27
2024-04-21T12:44:37.914Z,2.37
2024-04-21T12:47:05.309Z,3.07
2024-04-21T12:49:32.749Z,3.07
2024-04-21T12:52:00.229Z,2.27
2024-04-21T12:54:27.511Z,2.30
2024-04-21T12:56:54.397Z,2.27
2024-04-21T12:59:21.683Z,2.37
2024-04-21T13:01:48.805Z,2.20
2024-04-21T13:04:16.286Z,2.37
2024-04-21T13:06:43.740Z,3.27
2024-04-21T13:09:11.008Z,3.30
2024-04-21T13:11:38.326Z,2.80
2024-04-21T13:14:05.855Z,1.60
2024-04-21T13:16:33.189Z,2.40
2024-04-21T13:19:08.371Z,1.63
2024-04-21T13:21:39.587Z,2.27
2024-04-21T13:24:06.977Z,3.10
2024-04-21T13:26:34.385Z,3.60
2024-04-21T13:29:01.816Z,2.00
2024-04-21T13:31:29.582Z,3.83
2024-04-21T13:33:58.025Z,1.80
2024-04-21T13:36:34.434Z,1.90
2024-04-21T13:39:06.309Z,2.23
2024-04-21T13:41:33.950Z,2.50
2024-04-21T13:44:01.223Z,2.60
2024-04-21T13:46:28.193Z,2.70
2024-04-21T13:48:55.580Z,2.33
2024-04-21T13:51:31.054Z,1.87
2024-04-21T13:54:00.179Z,2.17
2024-04-21T13:56:27.455Z,2.10
2024-04-21T13:58:54.716Z,2.33
2024-04-21T14:01:22.203Z,3.50
2024-04-21T14:03:49.669Z,1.80
2024-04-21T14:06:20.048Z,2.63
2024-04-21T14:08:48.661Z,2.83
2024-04-21T14:11:15.943Z,2.97
2024-04-21T14:13:42.800Z,2.87
2024-04-21T14:16:10.179Z,2.93
2024-04-21T14:18:37.486Z,3.40
2024-04-21T14:21:04.813Z,2.03
2024-04-21T14:23:32.575Z,2.10
2024-04-21T14:26:00.170Z,2.03
2024-04-21T14:28:30.362Z,4.60
2024-04-21T14:30:59.694Z,2.17
2024-04-21T14:33:30.373Z,1.90
2024-04-21T14:35:58.269Z,2.07
2024-04-21T14:38:25.063Z,1.87
2024-04-21T14:40:52.442Z,2.53
2024-04-21T14:43:21.553Z,1.90
2024-04-21T14:45:49.476Z,2.00
2024-04-21T14:48:16.994Z,2.20
2024-04-21T14:50:45.792Z,3.40
2024-04-21T14:53:13.925Z,2.50
2024-04-21T14:55:45.323Z,3.43
2024-04-21T14:58:13.129Z,2.10
2024-04-21T15:00:40.435Z,2.07
2024-04-21T15:03:07.964Z,2.10
2024-04-21T15:05:35.322Z,2.03
2024-04-21T15:08:02.374Z,2.20
2024-04-21T15:10:29.623Z,3.30
2024-04-21T15:12:58.109Z,3.37
2024-04-21T15:15:29.633Z,3.27
2024-04-21T15:18:01.274Z,3.80
2024-04-21T15:20:28.659Z,3.50
2024-04-21T15:22:55.954Z,3.50
2024-04-21T15:25:22.910Z,3.23
2024-04-21T15:27:52.702Z,4.20
2024-04-21T15:30:21.227Z,3.77
2024-04-21T15:32:48.772Z,3.03
2024-04-21T15:35:16.315Z,2.40
2024-04-21T15:37:43.864Z,3.13
2024-04-21T15:40:12.009Z,3.73
2024-04-21T15:42:40.578Z,2.70
2024-04-21T15:45:08.721Z,3.33
2024-04-21T15:47:36.105Z,5.93
2024-04-21T15:50:03.942Z,2.73
2024-04-21T15:52:31.633Z,2.43
2024-04-21T15:55:00.920Z,2.50
2024-04-21T15:57:29.078Z,2.50
2024-04-21T15:59:55.922Z,2.37
2024-04-21T16:02:23.177Z,2.57
2024-04-21T16:04:50.082Z,2.50
2024-04-21T16:07:19.625Z,3.83
2024-04-21T16:09:46.762Z,2.70
2024-04-21T16:12:14.015Z,2.50
2024-04-21T16:14:41.264Z,2.50
2024-04-21T16:17:09.339Z,3.23
2024-04-21T16:19:36.776Z,2.07
2024-04-21T16:22:04.207Z,3.20
2024-04-21T16:24:31.552Z,1.90
2024-04-21T16:26:58.863Z,1.77
2024-04-21T16:29:26.137Z,2.33
2024-04-21T16:31:53.551Z,2.40
2024-04-21T16:34:21.096Z,2.57
2024-04-21T16:36:48.835Z,2.00
2024-04-21T16:39:15.949Z,3.10
2024-04-21T16:41:43.342Z,2.87
2024-04-21T16:44:10.893Z,3.53
2024-04-21T16:46:41.225Z,2.27
2024-04-21T16:49:08.553Z,4.00
2024-04-21T16:51:35.563Z,3.63
2024-04-21T16:54:02.986Z,3.77
2024-04-21T16:56:33.442Z,2.47
2024-04-21T16:59:00.809Z,2.10
2024-04-21T17:01:28.416Z,1.67
2024-04-21T17:03:55.936Z,2.93
2024-04-21T17:06:23.419Z,4.73
2024-04-21T17:08:50.598Z,2.40
2024-04-21T17:11:18.131Z,2.00
2024-04-21T17:13:46.436Z,2.13
2024-04-21T17:16:13.700Z,2.10
2024-04-21T17:18:43.267Z,2.67
2024-04-21T17:21:10.586Z,2.10
2024-04-21T17:23:37.961Z,2.07
2024-04-21T17:26:04.895Z,2.33
2024-04-21T17:28:31.962Z,2.03
2024-04-21T17:30:59.300Z,3.10
2024-04-21T17:33:26.778Z,2.70
2024-04-21T17:35:54.518Z,2.20
2024-04-21T17:38:21.971Z,4.77
2024-04-21T17:40:48.822Z,3.53
2024-04-21T17:43:16.125Z,12.70
2024-04-21T17:45:44.228Z,2.97
2024-04-21T17:48:11.348Z,2.97
2024-04-21T17:50:38.997Z,2.37
2024-04-21T17:53:05.908Z,4.60
2024-04-21T17:55:33.345Z,3.87
2024-04-21T17:58:00.452Z,2.20
2024-04-21T18:00:27.974Z,2.00
2024-04-21T18:02:55.460Z,3.27
2024-04-21T18:05:22.342Z,3.20
2024-04-21T18:07:55.431Z,2.00
2024-04-21T18:10:23.144Z,2.33
2024-04-21T18:12:52.114Z,2.27
2024-04-21T18:15:19.076Z,3.47
2024-04-21T18:17:47.983Z,2.43
2024-04-21T18:20:14.895Z,2.33
2024-04-21T18:22:42.905Z,2.10
2024-04-21T18:25:11.108Z,2.17
2024-04-21T18:27:38.422Z,2.00
2024-04-21T18:30:06.274Z,2.27
2024-04-21T18:32:33.609Z,3.27
2024-04-21T18:35:01.074Z,2.10
2024-04-21T18:37:28.655Z,8.23
2024-04-21T18:39:55.931Z,2.30
2024-04-21T18:42:23.322Z,2.47
2024-04-21T18:44:51.607Z,2.10
2024-04-21T18:47:19.061Z,3.00
2024-04-21T18:49:46.483Z,2.40
2024-04-21T18:52:14.070Z,2.03
2024-04-21T18:54:41.374Z,2.77
2024-04-21T18:57:08.622Z,2.97
2024-04-21T18:59:38.008Z,2.60
2024-04-21T19:02:06.525Z,2.70
2024-04-21T19:04:33.846Z,2.20
2024-04-21T19:07:03.573Z,3.63
2024-04-21T19:09:34.388Z,2.27
2024-04-21T19:12:01.774Z,3.03
2024-04-21T19:14:29.087Z,4.07
2024-04-21T19:16:56.189Z,4.00
2024-04-21T19:19:23.318Z,3.10
2024-04-21T19:21:52.211Z,2.47
2024-04-21T19:24:19.271Z,3.63
2024-04-21T19:26:46.510Z,3.30
2024-04-21T19:29:13.382Z,3.53
2024-04-21T19:31:40.736Z,3.30
2024-04-21T19:34:07.664Z,3.60
2024-04-21T19:36:35.179Z,3.63
2024-04-21T19:39:02.439Z,3.50
2024-04-21T19:41:29.311Z,3.67
2024-04-21T19:43:56.944Z,3.30
2024-04-21T19:46:24.530Z,3.53
2024-04-21T19:48:51.563Z,4.97
2024-04-21T19:51:18.847Z,3.70
2024-04-21T19:53:45.839Z,6.53
2024-04-21T19:56:13.207Z,3.20
2024-04-21T19:58:41.777Z,3.70
2024-04-21T20:01:08.911Z,5.60
2024-04-21T20:03:37.978Z,4.07
2024-04-21T20:06:08.799Z,4.93
2024-04-21T20:08:36.154Z,8.30
2024-04-21T20:11:10.473Z,5.87
2024-04-21T20:13:37.965Z,6.60
2024-04-21T20:16:24.181Z,6.33
2024-04-21T20:18:54.454Z,4.73
2024-04-21T20:21:21.480Z,4.93
2024-04-21T20:23:48.505Z,5.63
2024-04-21T20:26:19.166Z,5.90
2024-04-21T20:28:47.368Z,4.47
2024-04-21T20:31:18.844Z,5.13
2024-04-21T20:33:46.916Z,4.67
2024-04-21T20:36:18.267Z,4.97
2024-04-21T20:38:45.780Z,4.77
2024-04-21T20:41:16.933Z,4.73
2024-04-21T20:43:44.651Z,6.93
2024-04-21T20:46:21.885Z,5.67
2024-04-21T20:48:49.704Z,5.43
2024-04-21T20:51:16.972Z,5.83
2024-04-21T20:53:44.206Z,5.27
2024-04-21T20:56:11.146Z,5.40
2024-04-21T20:58:45.792Z,5.73
2024-04-21T21:01:19.793Z,8.37
2024-04-21T21:03:47.526Z,8.77
2024-04-21T21:06:14.849Z,4.50
2024-04-21T21:08:41.791Z,6.00
2024-04-21T21:11:09.028Z,8.03
2024-04-21T21:13:36.336Z,7.20
2024-04-21T21:16:03.636Z,5.83
2024-04-21T21:18:30.611Z,5.83
2024-04-21T21:20:57.961Z,6.33
2024-04-21T21:23:25.289Z,7.67
2024-04-21T21:25:53.251Z,7.27
2024-04-21T21:28:27.191Z,5.47
2024-04-21T21:30:54.492Z,6.87
2024-04-21T21:33:21.797Z,5.20
2024-04-21T21:35:57.105Z,8.10
2024-04-21T21:38:27.779Z,6.77
2024-04-21T21:40:57.121Z,5.23
2024-04-21T21:43:25.474Z,6.93
2024-04-21T21:45:52.603Z,5.83
2024-04-21T21:48:19.582Z,5.70
2024-04-21T21:50:46.971Z,7.00
2024-04-21T21:53:14.224Z,5.77
2024-04-21T21:55:42.095Z,5.97
2024-04-21T21:58:10.250Z,7.03
2024-04-21T22:00:38.010Z,6.83
2024-04-21T22:03:05.578Z,5.70
2024-04-21T22:05:32.879Z,6.00
2024-04-21T22:08:00.161Z,6.73
2024-04-21T22:10:28.543Z,10.77
2024-04-21T22:12:55.705Z,6.27
2024-04-21T22:15:22.995Z,9.20
2024-04-21T22:17:50.352Z,5.40
2024-04-21T22:20:17.673Z,5.60
2024-04-21T22:22:44.497Z,7.60
2024-04-21T22:25:11.847Z,7.20
2024-04-21T22:27:38.720Z,6.30
2024-04-21T22:30:06.405Z,6.73
2024-04-21T22:32:33.790Z,6.07
2024-04-21T22:35:00.761Z,5.80
2024-04-21T22:37:27.782Z,6.37
2024-04-21T22:39:55.132Z,6.43
2024-04-21T22:42:22.368Z,6.07
2024-04-21T22:44:49.621Z,6.40
2024-04-21T22:47:16.658Z,6.60
2024-04-21T22:49:43.926Z,6.60
2024-04-21T22:52:11.016Z,7.33
2024-04-21T22:54:38.249Z,7.70
2024-04-21T22:57:05.707Z,6.03
2024-04-21T22:59:32.930Z,6.63
2024-04-21T23:01:59.830Z,6.73
2024-04-21T23:04:27.128Z,8.00
2024-04-21T23:06:54.378Z,8.70
2024-04-21T23:09:21.612Z,7.17
2024-04-21T23:11:48.861Z,6.50
2024-04-21T23:14:15.747Z,6.40
2024-04-21T23:16:42.642Z,5.30
2024-04-21T23:19:09.871Z,4.90
2024-04-21T23:21:36.730Z,6.20
2024-04-21T23:24:04.139Z,6.00
2024-04-21T23:26:31.065Z,6.40
2024-04-21T23:28:58.416Z,5.87
2024-04-21T23:31:27.234Z,5.43
2024-04-21T23:33:54.618Z,6.40
2024-04-21T23:36:21.597Z,8.47
2024-04-21T23:38:50.391Z,6.90
2024-04-21T23:41:17.737Z,5.97
2024-04-21T23:43:44.773Z,5.80
2024-04-21T23:46:11.780Z,5.67
2024-04-21T23:48:38.730Z,5.33
2024-04-21T23:51:06.020Z,4.97
2024-04-21T23:53:33.332Z,6.37
2024-04-21T23:56:00.239Z,5.67
2024-04-21T23:58:27.242Z,8.77
